Terminal Aerodrome Forecast
Issued by NWS

Home | Current Version | Previous Version | Text Only | Print | Product List | Glossary On
Versions: 1 2 3 4 5 6 7 8 9 10 11 12 13 14 15 16
000
FTUS42 TJSJ 221400 CCA
TAFIST
TAF COR
TIST 221400Z 2212/2312 08008KT P6SM SCT025 SCT040
     FM221300 10012KT P6SM FEW030 SCT050
     FM221800 09012G18KT P6SM VCSH SCT025 SCT040
     FM222300 09008KT P6SM FEW030 SCT050=

USA.gov is the U.S. government's official web portal to all federal, state and local government web resources and services.